Time;durP1;ratioP1;P1;durP2;ratioP2;P2;SDS_P1;SDS_P2;PMS_P1;PMS_P2;Temp;Humidity;BMP_temperature;BMP_pressure;BME280_temperature;BME280_humidity;BME280_pressure;Samples;Min_cycle;Max_cycle;Signal;HPM_P1;HPM_P2
2021/12/01 00:01:14;;;;;;;0.60;0.60;;;;;;;5.74;100.00;95827.44;4855631;28;106155;-61
2021/12/01 00:03:43;;;;;;;0.40;0.40;;;;;;;5.75;100.00;95824.56;4856496;28;101880;-61
2021/12/01 00:06:11;;;;;;;0.53;0.40;;;;;;;5.85;100.00;95813.44;4856025;28;105526;-61
2021/12/01 00:08:39;;;;;;;0.43;0.43;;;;;;;5.83;100.00;95821.56;4855772;28;105844;-61
2021/12/01 00:11:06;;;;;;;0.30;0.30;;;;;;;5.82;100.00;95821.81;4859296;28;101836;-61
2021/12/01 00:13:34;;;;;;;1.07;0.50;;;;;;;5.86;100.00;95823.75;4873083;28;103231;-61
2021/12/01 00:16:03;;;;;;;0.50;0.50;;;;;;;5.85;100.00;95821.34;4856462;28;101841;-61
2021/12/01 00:18:31;;;;;;;1.10;1.00;;;;;;;5.86;100.00;95815.03;4872997;28;102928;-61
2021/12/01 00:20:59;;;;;;;0.63;0.63;;;;;;;5.89;100.00;95827.75;4854936;28;105931;-61
2021/12/01 00:23:27;;;;;;;0.60;0.60;;;;;;;5.93;100.00;95823.59;4856276;28;101916;-61
2021/12/01 00:25:56;;;;;;;0.83;0.60;;;;;;;6.02;100.00;95804.53;4873113;28;102550;-61
2021/12/01 00:28:24;;;;;;;0.50;0.50;;;;;;;5.99;100.00;95809.47;4855556;28;105726;-61
2021/12/01 00:30:52;;;;;;;0.50;0.50;;;;;;;6.00;100.00;95803.97;4860695;28;101895;-61
2021/12/01 00:33:22;;;;;;;0.50;0.50;;;;;;;6.05;100.00;95800.63;4858442;28;106039;-61
2021/12/01 00:35:52;;;;;;;0.77;0.77;;;;;;;6.11;100.00;95802.31;4859392;28;101869;-61
2021/12/01 00:38:23;;;;;;;1.10;1.00;;;;;;;6.10;100.00;95804.16;4859463;28;105479;-61
2021/12/01 00:40:52;;;;;;;1.17;1.07;;;;;;;6.09;100.00;95801.72;4858588;28;105402;-61
2021/12/01 00:43:22;;;;;;;1.10;1.00;;;;;;;6.02;100.00;95791.34;4858955;28;102026;-61
2021/12/01 00:45:55;;;;;;;0.87;0.87;;;;;;;6.02;100.00;95798.44;4859298;28;105388;-61
2021/12/01 00:48:23;;;;;;;0.40;0.40;;;;;;;6.03;100.00;95787.66;4858342;28;105443;-61
2021/12/01 00:50:54;;;;;;;1.73;0.73;;;;;;;6.01;100.00;95789.72;4859107;28;101992;-61
2021/12/01 00:53:23;;;;;;;0.50;0.50;;;;;;;5.97;100.00;95778.06;4861743;28;105469;-61
2021/12/01 00:55:51;;;;;;;0.40;0.40;;;;;;;5.98;100.00;95784.94;4858705;28;101963;-61
2021/12/01 00:58:19;;;;;;;0.30;0.30;;;;;;;6.00;100.00;95798.69;4858922;28;104798;-61
2021/12/01 01:00:49;;;;;;;0.30;0.30;;;;;;;6.08;100.00;95784.31;4875531;28;103043;-61
2021/12/01 01:03:18;;;;;;;0.30;0.30;;;;;;;6.06;100.00;95779.25;4858933;28;101836;-60
2021/12/01 01:05:45;;;;;;;0.30;0.30;;;;;;;6.06;100.00;95781.13;4858849;28;105217;-61
2021/12/01 01:08:15;;;;;;;0.40;0.40;;;;;;;6.05;100.00;95779.50;4858321;28;105502;-61
2021/12/01 01:11:08;;;;;;;0.30;0.30;;;;;;;6.00;100.00;95782.84;4858735;28;102289;-61
2021/12/01 01:16:25;;;;;;;0.40;0.40;;;;;;;6.11;100.00;95783.84;4861573;28;105420;-61
2021/12/01 01:19:00;;;;;;;0.30;0.30;;;;;;;6.08;100.00;95773.75;4858308;28;105385;-61
2021/12/01 01:21:30;;;;;;;0.40;0.40;;;;;;;6.13;100.00;95771.19;4874614;28;103435;-61
2021/12/01 01:23:59;;;;;;;0.30;0.30;;;;;;;6.16;100.00;95771.53;4858435;28;102072;-61
2021/12/01 01:26:29;;;;;;;0.23;0.23;;;;;;;6.18;100.00;95755.44;4858388;28;105388;-61
2021/12/01 01:28:56;;;;;;;0.30;0.30;;;;;;;6.20;100.00;95758.63;4857931;28;105582;-61
2021/12/01 01:31:24;;;;;;;0.40;0.40;;;;;;;6.19;100.00;95754.41;4858555;28;101814;-61
2021/12/01 01:33:53;;;;;;;0.40;0.40;;;;;;;6.25;100.00;95750.81;4858383;28;105491;-61
2021/12/01 01:36:20;;;;;;;0.50;0.50;;;;;;;6.26;100.00;95749.78;4857727;28;105528;-61
2021/12/01 01:38:48;;;;;;;0.50;0.50;;;;;;;6.22;100.00;95752.09;4861871;28;102054;-61
2021/12/01 01:41:16;;;;;;;0.60;0.60;;;;;;;6.23;100.00;95750.25;4874995;28;102843;-61
2021/12/01 01:43:48;;;;;;;0.50;0.50;;;;;;;6.18;100.00;95750.16;4857719;28;101824;-61
2021/12/01 01:46:18;;;;;;;0.50;0.50;;;;;;;6.24;100.00;95738.66;4875372;28;102535;-61
2021/12/01 01:48:48;;;;;;;0.33;0.33;;;;;;;6.21;100.00;95729.38;4857592;28;103847;-61
2021/12/01 01:51:18;;;;;;;0.40;0.40;;;;;;;6.18;100.00;95726.41;4857992;28;102020;-61
2021/12/01 01:53:47;;;;;;;0.40;0.40;;;;;;;6.10;100.00;95732.06;4858268;28;106805;-61
2021/12/01 01:56:16;;;;;;;0.40;0.40;;;;;;;5.97;100.00;95721.81;4857211;28;104634;-61
2021/12/01 01:58:45;;;;;;;0.73;0.60;;;;;;;5.93;100.00;95720.69;4858134;28;101892;-61
2021/12/01 02:01:23;;;;;;;0.47;0.47;;;;;;;5.80;100.00;95718.34;4860685;28;105426;-61
2021/12/01 02:03:51;;;;;;;2.20;0.70;;;;;;;5.78;100.00;95721.19;4857791;28;102367;-61
2021/12/01 02:06:23;;;;;;;0.67;0.67;;;;;;;5.75;100.00;95707.69;4857932;28;105612;-61
2021/12/01 02:08:52;;;;;;;0.70;0.70;;;;;;;5.72;100.00;95713.44;4857330;28;105892;-61
2021/12/01 02:11:20;;;;;;;1.03;0.60;;;;;;;5.71;100.00;95701.28;4875016;28;101901;-61
2021/12/01 02:13:51;;;;;;;0.90;0.90;;;;;;;5.71;100.00;95699.44;4857966;28;105079;-61
2021/12/01 02:16:21;;;;;;;0.70;0.70;;;;;;;5.68;100.00;95704.41;4857300;28;105827;-61
2021/12/01 02:18:49;;;;;;;0.90;0.90;;;;;;;5.62;100.00;95700.06;4857514;28;101782;-61
2021/12/01 02:21:26;;;;;;;1.90;1.30;;;;;;;5.55;100.00;95707.31;4857152;28;105587;-61
2021/12/01 02:23:54;;;;;;;1.23;1.20;;;;;;;5.40;100.00;95707.81;4860155;28;101842;-61
2021/12/01 02:26:23;;;;;;;1.10;1.10;;;;;;;5.46;100.00;95693.69;4857546;28;105360;-61
2021/12/01 02:28:53;;;;;;;1.43;1.00;;;;;;;5.47;100.00;95686.59;4874032;28;103325;-61
2021/12/01 02:31:25;;;;;;;1.30;1.20;;;;;;;5.43;100.00;95683.63;4857498;28;101859;-61
2021/12/01 02:33:53;;;;;;;1.43;1.30;;;;;;;5.48;100.00;95673.19;4857571;28;105591;-61
2021/12/01 02:36:23;;;;;;;1.10;1.00;;;;;;;5.43;100.00;95674.91;4856927;28;105697;-61
2021/12/01 02:38:51;;;;;;;1.20;1.10;;;;;;;5.39;100.00;95668.50;4857417;28;101937;-61
2021/12/01 02:41:27;;;;;;;1.10;1.10;;;;;;;5.34;100.00;95671.84;4857227;28;105310;-61
2021/12/01 02:43:54;;;;;;;2.37;1.30;;;;;;;5.32;100.00;95660.75;4860250;28;104403;-61
2021/12/01 02:46:22;;;;;;;1.40;1.30;;;;;;;5.38;100.00;95651.09;4857260;28;104862;-61
2021/12/01 02:48:50;;;;;;;1.50;1.40;;;;;;;5.36;100.00;95648.69;4856734;28;105442;-61
2021/12/01 02:51:19;;;;;;;2.33;1.57;;;;;;;5.34;100.00;95648.13;4856976;28;102022;-61
2021/12/01 02:53:49;;;;;;;1.87;1.77;;;;;;;5.31;100.00;95653.06;4857345;28;105331;-61
2021/12/01 02:56:17;;;;;;;1.53;1.43;;;;;;;5.34;100.00;95649.97;4873401;28;102910;-61
2021/12/01 02:58:45;;;;;;;1.70;1.60;;;;;;;5.34;100.00;95652.63;4857252;28;101966;-61
2021/12/01 03:01:16;;;;;;;1.90;1.80;;;;;;;5.32;100.00;95654.66;4857049;28;105284;-61
2021/12/01 03:03:44;;;;;;;2.13;1.93;;;;;;;5.30;100.00;95654.13;4856190;28;103957;-61
2021/12/01 03:06:13;;;;;;;1.90;1.80;;;;;;;5.23;100.00;95640.28;4860384;28;101875;-61
2021/12/01 03:08:42;;;;;;;2.13;1.97;;;;;;;5.20;100.00;95638.09;4856492;28;104421;-61
2021/12/01 03:11:11;;;;;;;2.73;2.17;;;;;;;5.21;100.00;95640.50;4857215;28;102233;-61
2021/12/01 03:13:40;;;;;;;2.23;2.03;;;;;;;5.09;100.00;95636.31;4874104;28;102544;-61
2021/12/01 03:16:08;;;;;;;1.70;1.60;;;;;;;5.19;100.00;95621.47;4856363;28;105817;-61
2021/12/01 03:18:36;;;;;;;1.90;1.80;;;;;;;5.16;100.00;95610.63;4857027;28;101991;-61
2021/12/01 03:21:03;;;;;;;2.10;2.00;;;;;;;5.17;100.00;95613.03;4856423;28;105630;-61
2021/12/01 03:23:32;;;;;;;1.93;1.83;;;;;;;5.19;100.00;95615.44;4856434;28;105126;-61
2021/12/01 03:25:59;;;;;;;1.97;1.87;;;;;;;5.16;100.00;95606.16;4856742;28;102230;-61
2021/12/01 03:28:28;;;;;;;2.10;2.00;;;;;;;5.16;100.00;95610.63;4859208;28;105261;-61
2021/12/01 03:30:57;;;;;;;2.00;1.87;;;;;;;5.12;100.00;95609.50;4856683;28;101924;-61
2021/12/01 03:33:25;;;;;;;2.20;2.10;;;;;;;5.13;100.00;95598.72;4856777;28;105285;-61
2021/12/01 03:35:54;;;;;;;2.40;2.20;;;;;;;5.05;100.00;95590.38;4873210;28;102829;-61
2021/12/01 03:38:26;;;;;;;2.57;2.37;;;;;;;5.06;100.00;95590.16;4856701;28;101865;-61
2021/12/01 03:40:56;;;;;;;1.87;1.77;;;;;;;5.04;100.00;95596.69;4856692;28;103624;-61
2021/12/01 03:43:24;;;;;;;2.03;1.90;;;;;;;5.05;100.00;95598.28;4873126;28;102737;-61
2021/12/01 03:45:54;;;;;;;2.10;2.00;;;;;;;5.14;100.00;95594.25;4856537;28;101893;-61
2021/12/01 03:48:23;;;;;;;2.23;2.13;;;;;;;5.10;100.00;95591.28;4856728;28;105726;-61
2021/12/01 03:50:52;;;;;;;2.17;2.07;;;;;;;5.04;100.00;95586.97;4876429;28;102840;-61
2021/12/01 03:53:21;;;;;;;2.40;2.20;;;;;;;5.08;100.00;95576.75;4856648;28;105112;-61
2021/12/01 03:55:49;;;;;;;3.10;2.00;;;;;;;5.00;100.00;95566.56;4855416;28;106111;-61
2021/12/01 03:58:17;;;;;;;2.10;1.90;;;;;;;5.02;100.00;95557.41;4856299;28;101936;-61
2021/12/01 04:00:44;;;;;;;2.50;2.40;;;;;;;4.99;100.00;95557.06;4856416;28;105297;-61
2021/12/01 04:03:13;;;;;;;2.43;2.30;;;;;;;4.90;100.00;95555.84;4855781;28;105688;-61
2021/12/01 04:05:40;;;;;;;2.20;2.10;;;;;;;4.90;100.00;95554.00;4857234;28;101898;-61
2021/12/01 04:08:09;;;;;;;2.03;1.93;;;;;;;4.97;100.00;95543.34;4859600;28;105343;-61
2021/12/01 04:10:37;;;;;;;4.43;4.03;;;;;;;4.90;100.00;95553.22;4876114;28;103167;-61
2021/12/01 04:13:05;;;;;;;2.10;2.00;;;;;;;5.02;100.00;95538.19;4862896;28;102142;-61
2021/12/01 04:15:32;;;;;;;2.10;1.87;;;;;;;5.05;100.00;95527.16;4858694;28;105612;-61
2021/12/01 04:18:00;;;;;;;4.87;4.40;;;;;;;5.12;100.00;95528.59;4859649;28;101885;-61
2021/12/01 04:20:29;;;;;;;3.30;2.90;;;;;;;5.08;100.00;95527.47;4858758;28;105641;-61
2021/12/01 04:22:57;;;;;;;2.17;2.07;;;;;;;5.14;100.00;95525.72;4859033;28;105123;-61
2021/12/01 04:25:24;;;;;;;11.93;7.40;;;;;;;5.11;100.00;95521.75;4859289;28;101931;-61
2021/12/01 04:27:53;;;;;;;2.63;2.30;;;;;;;5.10;100.00;95517.50;4859352;28;105104;-61
2021/12/01 04:30:22;;;;;;;1.83;1.50;;;;;;;5.17;100.00;95512.06;4858586;28;105955;-61
2021/12/01 04:32:51;;;;;;;2.90;2.70;;;;;;;5.19;100.00;95510.00;4862681;28;101844;-61
2021/12/01 04:35:19;;;;;;;2.30;2.10;;;;;;;5.16;100.00;95511.28;4858633;28;105652;-61
2021/12/01 04:37:49;;;;;;;1.90;1.80;;;;;;;5.19;100.00;95500.25;4859203;28;102111;-61
2021/12/01 04:40:18;;;;;;;1.80;1.70;;;;;;;5.30;100.00;95501.25;4859147;28;105350;-61
2021/12/01 04:42:46;;;;;;;2.70;2.50;;;;;;;5.38;100.00;95498.19;4875661;28;103152;-61
2021/12/01 04:45:16;;;;;;;1.50;1.40;;;;;;;5.39;100.00;95494.50;4859008;28;101877;-61
2021/12/01 04:47:45;;;;;;;1.40;1.40;;;;;;;5.42;100.00;95494.84;4858870;28;104207;-61
2021/12/01 04:50:14;;;;;;;1.30;1.30;;;;;;;5.42;100.00;95489.59;4858471;28;105881;-61
2021/12/01 04:52:42;;;;;;;1.80;1.70;;;;;;;5.44;100.00;95486.69;4876182;28;102000;-61
2021/12/01 04:55:12;;;;;;;1.93;1.43;;;;;;;5.47;100.00;95480.94;4861904;28;105186;-61
2021/12/01 04:57:41;;;;;;;1.63;1.53;;;;;;;5.44;100.00;95482.22;4858482;28;101847;-61
2021/12/01 05:00:13;;;;;;;3.47;2.27;;;;;;;5.41;100.00;95474.78;4858178;28;105408;-61
2021/12/01 05:02:51;;;;;;;1.70;1.60;;;;;;;5.41;100.00;95477.41;4872525;28;103141;-61
2021/12/01 05:05:18;;;;;;;1.93;1.80;;;;;;;5.39;100.00;95476.88;4859284;28;101842;-61
2021/12/01 05:07:46;;;;;;;1.73;1.63;;;;;;;5.39;100.00;95478.69;4859161;28;105493;-61
2021/12/01 05:10:15;;;;;;;2.00;1.90;;;;;;;5.38;100.00;95475.28;4858459;28;105432;-60
2021/12/01 05:13:18;;;;;;;2.10;2.00;;;;;;;5.33;100.00;95464.66;4859230;28;101907;-61
2021/12/01 05:15:45;;;;;;;2.37;2.27;;;;;;;5.31;100.00;95472.00;4852522;29;105916;-61
2021/12/01 05:18:16;;;;;;;2.03;1.80;;;;;;;5.26;100.00;95469.28;4857584;29;105662;-61
2021/12/01 05:20:43;;;;;;;1.90;1.80;;;;;;;5.27;100.00;95454.25;4839665;29;105294;-61
2021/12/01 05:23:15;;;;;;;2.17;2.07;;;;;;;5.27;100.00;95452.44;4839530;29;106529;-62
2021/12/01 05:26:14;;;;;;;2.40;2.20;;;;;;;5.28;100.00;95456.66;4840074;29;101817;-62
2021/12/01 05:28:43;;;;;;;2.50;2.00;;;;;;;5.32;100.00;95454.34;4840200;29;104988;-62
2021/12/01 05:31:21;;;;;;;2.23;2.13;;;;;;;5.27;100.00;95454.25;4839562;29;104536;-62
2021/12/01 05:33:49;;;;;;;2.33;2.23;;;;;;;5.25;100.00;95437.91;4851749;28;101805;-62
2021/12/01 05:36:17;;;;;;;2.53;2.33;;;;;;;5.23;100.00;95429.44;4858715;28;105454;-62
2021/12/01 05:38:45;;;;;;;2.60;2.40;;;;;;;5.22;100.00;95430.47;4858088;28;105909;-62
2021/12/01 05:44:37;;;;;;;2.57;2.37;;;;;;;5.19;100.00;95426.47;4858131;28;105137;-61
2021/12/01 05:47:05;;;;;;;2.13;2.03;;;;;;;5.19;100.00;95423.84;4858632;28;102043;-61
2021/12/01 05:49:32;;;;;;;2.20;2.10;;;;;;;5.22;100.00;95425.19;4842172;29;105140;-61
2021/12/01 05:52:17;;;;;;;2.63;2.43;;;;;;;5.24;100.00;95429.19;4838933;29;104342;-61
2021/12/01 05:54:51;;;;;;;2.77;2.57;;;;;;;5.25;100.00;95430.78;4839793;29;102255;-61
2021/12/01 05:57:18;;;;;;;3.27;2.43;;;;;;;5.25;100.00;95424.72;4839649;29;105295;-61
2021/12/01 05:59:47;;;;;;;4.20;2.37;;;;;;;5.24;100.00;95423.13;4838991;29;106771;-61
2021/12/01 06:02:38;;;;;;;3.10;2.87;;;;;;;5.24;100.00;95423.13;4841428;28;102064;-61
2021/12/01 06:05:08;;;;;;;2.80;2.60;;;;;;;5.25;100.00;95420.22;4861055;28;104686;-61
2021/12/01 06:07:36;;;;;;;2.67;2.47;;;;;;;5.22;100.00;95415.47;4858066;28;101901;-61
2021/12/01 06:10:04;;;;;;;3.43;2.93;;;;;;;5.23;100.00;95426.81;4858249;28;105321;-61
2021/12/01 06:15:55;;;;;;;3.10;2.70;;;;;;;5.21;100.00;95413.06;4857920;28;101871;-61
2021/12/01 06:18:23;;;;;;;3.00;2.63;;;;;;;5.19;100.00;95409.88;4874815;28;102868;-60
2021/12/01 06:20:51;;;;;;;5.37;3.70;;;;;;;5.18;100.00;95408.28;4853461;28;105497;-60
2021/12/01 06:23:19;;;;;;;5.43;3.97;;;;;;;5.19;100.00;95409.88;4857958;28;102004;-63
2021/12/01 06:26:10;;;;;;;2.90;2.70;;;;;;;5.17;100.00;95404.03;4850942;29;105458;-62
2021/12/01 06:28:40;;;;;;;3.00;2.80;;;;;;;5.15;100.00;95399.03;4841183;29;105939;-62
2021/12/01 06:31:26;;;;;;;3.30;3.10;;;;;;;5.15;100.00;95395.56;4838911;29;104820;-62
2021/12/01 06:33:54;;;;;;;3.10;2.90;;;;;;;5.11;100.00;95397.09;4838277;29;104593;-62
2021/12/01 06:36:22;;;;;;;3.47;3.17;;;;;;;5.08;100.00;95408.13;4851994;28;101890;-62
2021/12/01 06:38:49;;;;;;;3.67;3.37;;;;;;;5.03;100.00;95419.34;4857400;28;105402;-62
2021/12/01 06:41:17;;;;;;;3.50;3.20;;;;;;;5.02;100.00;95425.66;4856800;28;104429;-62
2021/12/01 06:43:45;;;;;;;3.53;3.20;;;;;;;5.03;100.00;95418.56;4874342;28;101893;-63
2021/12/01 06:46:12;;;;;;;3.80;3.50;;;;;;;5.10;100.00;95398.13;4848531;29;105383;-62
2021/12/01 06:48:42;;;;;;;3.57;3.27;;;;;;;5.15;100.00;95390.31;4841206;29;105526;-62
2021/12/01 06:51:42;;;;;;;3.33;3.03;;;;;;;5.16;100.00;95374.25;4849813;28;105190;-62
2021/12/01 06:54:49;;;;;;;5.03;3.53;;;;;;;5.17;100.00;95380.31;4856952;28;104450;-62
2021/12/01 06:57:16;;;;;;;4.10;3.80;;;;;;;5.14;100.00;95367.63;4857432;28;101948;-62
2021/12/01 06:59:44;;;;;;;4.17;3.77;;;;;;;5.09;100.00;95351.75;4850032;29;105322;-63
2021/12/01 07:02:13;;;;;;;3.90;3.53;;;;;;;5.05;100.00;95356.72;4837762;29;105896;-63
2021/12/01 07:04:42;;;;;;;3.87;3.57;;;;;;;5.03;100.00;95345.59;4838619;29;102186;-62
2021/12/01 07:07:10;;;;;;;4.03;3.73;;;;;;;5.00;100.00;95326.84;4838543;29;104896;-63
2021/12/01 07:13:54;;;;;;;4.30;3.87;;;;;;;4.85;100.00;95287.91;4855992;29;101679;-61
2021/12/01 07:16:23;;;;;;;4.23;3.87;;;;;;;4.78;100.00;95270.69;4862801;28;103051;-61
2021/12/01 07:18:51;;;;;;;4.20;3.90;;;;;;;4.79;100.00;95282.78;4857151;28;101925;-61
2021/12/01 07:22:07;;;;;;;4.70;4.30;;;;;;;4.77;100.00;95285.69;4873635;28;102070;-61
2021/12/01 07:24:53;;;;;;;5.50;4.37;;;;;;;4.79;100.00;95288.06;4859188;28;102618;-62
2021/12/01 07:27:20;;;;;;;4.50;4.10;;;;;;;4.82;100.00;95282.31;4853869;29;101795;-60
2021/12/01 07:29:47;;;;;;;5.83;5.27;;;;;;;4.87;100.00;95285.03;4838362;29;105071;-61
2021/12/01 07:32:34;;;;;;;12.97;8.63;;;;;;;4.72;100.00;95300.59;4837795;29;105856;-62
2021/12/01 07:35:02;;;;;;;18.47;10.60;;;;;;;4.70;100.00;95306.09;4838553;29;101785;-62
2021/12/01 07:37:31;;;;;;;8.70;6.20;;;;;;;4.71;100.00;95322.72;4841675;28;104946;-62
2021/12/01 07:39:58;;;;;;;8.93;6.87;;;;;;;4.74;100.00;95330.16;4856133;28;101969;-62
2021/12/01 07:42:45;;;;;;;7.43;6.57;;;;;;;4.73;100.00;95326.72;4856636;28;104063;-62
2021/12/01 07:45:13;;;;;;;8.33;6.10;;;;;;;4.78;100.00;95324.16;4856088;28;105718;-62
2021/12/01 07:47:41;;;;;;;5.27;4.60;;;;;;;4.90;100.00;95331.94;4856526;28;101974;-62
2021/12/01 07:50:10;;;;;;;4.13;3.53;;;;;;;5.09;100.00;95322.75;4856330;28;105317;-62
2021/12/01 07:56:03;;;;;;;4.67;3.07;;;;;;;5.41;100.00;95300.78;4837971;29;102141;-62
2021/12/01 07:58:31;;;;;;;5.17;4.30;;;;;;;5.52;100.00;95291.19;4837573;29;106572;-62
2021/12/01 08:00:59;;;;;;;4.77;3.93;;;;;;;5.58;100.00;95290.22;4840578;29;105699;-62
2021/12/01 08:03:26;;;;;;;6.50;4.60;;;;;;;5.53;100.00;95288.31;4837697;29;105406;-61
2021/12/01 08:05:54;;;;;;;8.30;4.57;;;;;;;5.53;100.00;95284.88;4840205;28;105757;-63
2021/12/01 08:08:21;;;;;;;3.70;3.30;;;;;;;5.69;100.00;95286.66;4856474;28;101979;-63
2021/12/01 08:11:02;;;;;;;2.50;2.30;;;;;;;5.76;100.00;95276.69;4853326;28;105521;-63
2021/12/01 08:13:29;;;;;;;2.80;2.40;;;;;;;5.67;100.00;95275.56;4854136;29;101909;-63
2021/12/01 08:15:57;;;;;;;2.50;2.30;;;;;;;5.65;100.00;95267.06;4837950;29;102193;-62
2021/12/01 08:18:25;;;;;;;2.80;2.53;;;;;;;5.62;100.00;95267.59;4837707;29;103703;-63
2021/12/01 08:21:08;;;;;;;3.63;2.70;;;;;;;5.73;100.00;95261.38;4836934;29;104729;-62
2021/12/01 08:23:36;;;;;;;3.10;2.90;;;;;;;5.71;100.00;95261.63;4841088;29;101890;-63
2021/12/01 08:26:23;;;;;;;2.50;2.30;;;;;;;5.89;100.00;95263.94;4837040;29;105605;-62
2021/12/01 08:28:51;;;;;;;2.70;2.50;;;;;;;5.87;100.00;95265.22;4854721;29;101764;-62
2021/12/01 08:31:24;;;;;;;2.60;2.40;;;;;;;5.88;100.00;95266.81;4837538;29;105598;-62
2021/12/01 08:33:52;;;;;;;2.87;2.67;;;;;;;6.00;100.00;95267.50;4837053;29;105432;-62
2021/12/01 08:36:19;;;;;;;2.70;2.50;;;;;;;6.19;100.00;95260.81;4845298;28;102036;-62
2021/12/01 08:38:47;;;;;;;2.73;2.53;;;;;;;6.27;100.00;95263.78;4873357;28;102829;-62
2021/12/01 08:41:39;;;;;;;1.60;1.50;;;;;;;6.36;100.00;95258.84;4855155;28;105950;-62
2021/12/01 08:44:07;;;;;;;1.43;1.33;;;;;;;6.44;100.00;95250.47;4856411;28;101841;-62
2021/12/01 08:46:34;;;;;;;1.90;1.80;;;;;;;6.48;100.00;95251.53;4859020;28;105472;-62
2021/12/01 08:56:35;;;;;;;5.60;4.10;;;;;;;6.83;100.00;95257.88;4855428;28;102265;-62
2021/12/01 08:59:05;;;;;;;5.37;4.07;;;;;;;6.79;100.00;95258.66;4840317;29;101961;-62
2021/12/01 09:01:37;;;;;;;3.90;3.60;;;;;;;6.67;100.00;95248.28;4840442;29;106433;-62
2021/12/01 09:04:05;;;;;;;3.90;3.50;;;;;;;6.58;100.00;95251.63;4839767;29;104352;-62
2021/12/01 09:06:33;;;;;;;3.83;3.30;;;;;;;6.48;100.00;95241.78;4840487;29;101896;-63
2021/12/01 09:09:00;;;;;;;5.83;3.73;;;;;;;6.38;100.00;95243.56;4844853;28;105416;-63
2021/12/01 09:12:14;;;;;;;3.90;3.53;;;;;;;6.43;100.00;95249.66;4859082;28;102255;-62
2021/12/01 09:14:45;;;;;;;3.77;3.13;;;;;;;6.45;100.00;95238.88;4874276;28;102768;-62
2021/12/01 09:17:13;;;;;;;3.80;3.40;;;;;;;6.51;100.00;95245.78;4839609;29;105664;-63
2021/12/01 09:19:40;;;;;;;3.63;3.30;;;;;;;6.55;100.00;95246.88;4840134;29;101977;-62
2021/12/01 09:22:21;;;;;;;3.37;3.07;;;;;;;6.61;100.00;95241.34;4839800;29;105387;-62
2021/12/01 09:24:49;;;;;;;4.07;3.67;;;;;;;6.80;100.00;95223.25;4839494;29;106641;-61
2021/12/01 09:27:17;;;;;;;4.33;3.27;;;;;;;6.90;100.00;95223.31;4840073;29;101874;-61
2021/12/01 09:29:46;;;;;;;3.50;3.23;;;;;;;6.84;100.00;95230.44;4840014;29;105515;-62
2021/12/01 09:32:43;;;;;;;3.83;2.63;;;;;;;6.67;100.00;95232.44;4842830;29;104339;-61
2021/12/01 09:35:12;;;;;;;2.47;2.27;;;;;;;6.77;100.00;95221.13;4839984;29;105637;-62
2021/12/01 09:37:41;;;;;;;2.87;2.57;;;;;;;6.56;100.00;95217.56;4839386;29;105358;-62
2021/12/01 09:40:14;;;;;;;2.43;2.20;;;;;;;6.35;100.00;95220.31;4839781;29;101856;-62
2021/12/01 09:43:22;;;;;;;2.33;2.23;;;;;;;6.40;100.00;95228.25;4839936;29;105575;-62
2021/12/01 09:45:52;;;;;;;2.63;2.43;;;;;;;6.44;100.00;95222.22;4833898;29;105751;-62
2021/12/01 09:48:20;;;;;;;2.63;2.43;;;;;;;6.80;100.00;95220.63;4835779;29;102172;-61
2021/12/01 09:51:36;;;;;;;2.50;2.30;;;;;;;7.21;100.00;95222.44;4839870;29;105394;-61
2021/12/01 09:54:14;;;;;;;2.17;2.07;;;;;;;7.46;100.00;95206.66;4820644;29;106008;-62
2021/12/01 09:56:41;;;;;;;2.10;1.90;;;;;;;7.40;100.00;95218.28;4824076;29;103620;-62
2021/12/01 09:59:09;;;;;;;2.30;2.13;;;;;;;7.58;100.00;95217.84;4839107;29;105465;-62
2021/12/01 10:01:47;;;;;;;1.97;1.57;;;;;;;7.55;100.00;95203.28;4856423;29;101821;-63
2021/12/01 10:04:14;;;;;;;1.70;1.60;;;;;;;7.52;100.00;95205.66;4854472;29;106928;-62
2021/12/01 10:06:42;;;;;;;2.07;1.87;;;;;;;7.50;100.00;95197.97;4838985;29;105721;-62
2021/12/01 10:09:11;;;;;;;2.40;2.30;;;;;;;7.69;100.00;95209.66;4855063;29;101948;-62
2021/12/01 10:11:43;;;;;;;1.60;1.50;;;;;;;7.60;100.00;95192.72;4839145;29;105521;-63
2021/12/01 10:14:17;;;;;;;2.07;1.97;;;;;;;7.73;100.00;95186.91;4839089;29;105616;-69
2021/12/01 10:16:52;;;;;;;2.33;2.13;;;;;;;7.98;100.00;95180.88;4839529;29;101880;-62
2021/12/01 10:19:21;;;;;;;1.70;1.60;;;;;;;7.96;100.00;95188.28;4843634;29;101749;-62
2021/12/01 10:22:27;;;;;;;1.50;1.40;;;;;;;7.58;100.00;95176.28;4855385;28;102127;-62
2021/12/01 10:24:55;;;;;;;1.30;1.30;;;;;;;8.01;100.00;95167.13;4858119;28;104104;-63
2021/12/01 10:27:23;;;;;;;1.83;1.60;;;;;;;8.13;100.00;95165.00;4855489;28;105408;-63
2021/12/01 10:29:52;;;;;;;1.90;1.70;;;;;;;8.29;100.00;95153.38;4857776;28;102329;-63
2021/12/01 10:32:24;;;;;;;1.83;1.73;;;;;;;8.31;100.00;95156.56;4855709;28;105626;-63
2021/12/01 10:34:53;;;;;;;2.10;1.90;;;;;;;8.43;100.00;95152.56;4857369;28;104319;-64
2021/12/01 10:37:25;;;;;;;1.80;1.70;;;;;;;8.47;100.00;95142.25;4857807;28;101965;-62
2021/12/01 10:40:07;;;;;;;2.30;2.10;;;;;;;8.55;100.00;95139.03;4857913;28;104233;-63
2021/12/01 10:42:50;;;;;;;1.90;1.80;;;;;;;8.55;100.00;95128.44;4860660;28;105957;-62
2021/12/01 10:45:19;;;;;;;2.80;1.90;;;;;;;8.54;100.00;95138.25;4857836;28;105429;-62
2021/12/01 10:47:49;;;;;;;2.47;1.97;;;;;;;8.42;100.00;95123.72;4857166;28;104292;-62
2021/12/01 10:50:18;;;;;;;4.80;2.37;;;;;;;8.52;100.00;95111.25;4857693;28;101932;-62
2021/12/01 10:52:49;;;;;;;2.53;1.80;;;;;;;8.49;100.00;95113.63;4864822;28;101944;-62
2021/12/01 10:55:25;;;;;;;2.40;2.10;;;;;;;8.56;100.00;95111.50;4871406;28;105491;-63
2021/12/01 10:57:57;;;;;;;2.00;1.80;;;;;;;8.54;100.00;95087.94;4852557;29;101917;-62
2021/12/01 11:00:28;;;;;;;3.23;2.00;;;;;;;8.59;100.00;95079.97;4856630;28;105569;-64
2021/12/01 11:03:07;;;;;;;1.97;1.77;;;;;;;8.91;100.00;95071.63;4857107;28;104133;-62
2021/12/01 11:05:37;;;;;;;2.33;1.70;;;;;;;9.13;100.00;95066.75;4853597;29;101769;-62
2021/12/01 11:08:15;;;;;;;1.77;1.67;;;;;;;9.05;100.00;95062.03;4838034;29;105433;-61
2021/12/01 11:11:25;;;;;;;1.80;1.70;;;;;;;9.30;100.00;95059.22;4838526;29;101916;-62
2021/12/01 11:13:53;;;;;;;1.60;1.50;;;;;;;9.20;100.00;95048.69;4838416;29;105181;-62
2021/12/01 11:16:21;;;;;;;1.67;1.57;;;;;;;8.87;100.00;95044.06;4836888;29;105752;-62
2021/12/01 11:18:52;;;;;;;5.27;4.47;;;;;;;9.04;100.00;95040.03;4838643;29;101928;-61
2021/12/01 11:21:22;;;;;;;1.80;1.70;;;;;;;9.22;100.00;95031.44;4838018;29;104261;-62
2021/12/01 11:23:52;;;;;;;1.80;1.70;;;;;;;9.33;100.00;95021.56;4838061;29;105663;-62
2021/12/01 11:26:21;;;;;;;1.30;1.30;;;;;;;9.41;100.00;95018.31;4841576;29;101983;-62
2021/12/01 11:28:51;;;;;;;7.00;6.33;;;;;;;9.37;100.00;95014.66;4837737;29;105762;-62
2021/12/01 11:31:47;;;;;;;1.50;1.40;;;;;;;9.70;100.00;94995.28;4838438;29;102119;-62
2021/12/01 11:34:19;;;;;;;1.50;1.10;;;;;;;9.47;100.00;94988.03;4838410;29;105438;-62
2021/12/01 11:36:51;;;;;;;1.07;1.07;;;;;;;9.39;100.00;94989.41;4837621;29;105652;-62
2021/12/01 11:39:22;;;;;;;1.50;1.40;;;;;;;9.08;100.00;94976.63;4843184;28;101950;-62
2021/12/01 11:42:19;;;;;;;1.20;1.17;;;;;;;9.42;100.00;94953.56;4874165;28;102595;-62
2021/12/01 11:44:47;;;;;;;0.90;0.90;;;;;;;9.54;100.00;94949.50;4856356;28;105626;-62
2021/12/01 11:47:17;;;;;;;0.93;0.93;;;;;;;9.65;100.00;94942.25;4857037;28;101895;-62
2021/12/01 11:49:50;;;;;;;1.00;1.00;;;;;;;9.49;100.00;94917.69;4859475;28;105036;-62
2021/12/01 11:52:48;;;;;;;1.00;0.90;;;;;;;9.40;100.00;94911.41;4838247;29;102021;-62
2021/12/01 11:55:54;;;;;;;1.20;0.93;;;;;;;9.07;100.00;94901.59;4837647;29;105318;-62
2021/12/01 11:58:44;;;;;;;3.07;2.23;;;;;;;9.18;100.00;94897.81;4846220;28;105761;-62
2021/12/01 12:01:42;;;;;;;6.53;5.00;;;;;;;8.97;100.00;94885.78;4873865;28;101876;-62
2021/12/01 12:04:30;;;;;;;0.80;0.80;;;;;;;8.99;100.00;94878.31;4848816;28;104309;-61
2021/12/01 12:07:05;;;;;;;0.80;0.80;;;;;;;9.03;100.00;94873.25;4856199;28;105516;-62
2021/12/01 12:09:33;;;;;;;1.10;1.10;;;;;;;9.20;100.00;94868.34;4856477;28;101811;-62
2021/12/01 12:12:20;;;;;;;1.43;1.33;;;;;;;9.53;100.00;94860.34;4856452;28;105330;-60